Wadesville, IN (47638)

10:26 PM CDT on July 24, 2016 (GMT -0500)
SR 165 | | Change Station

Elev 456 ft 38.11 °N, 87.79 °W | Updated 6 seconds ago

Clear
Clear
80.8 °F
Feels Like 87 °F
N
0.0
Wind Variable Wind from SW
Gusts 0.0 mph

Today
High -- | Low -- °F
--% Chance of Precip.
Yesterday
High -- | Low -- °F
Precip. -- in
Pressure 29.96 in
Visibility 10.0 miles
Clouds Clear
Heat Index 87 °F
Dew Point 76 °F
Humidity 87%
Rainfall 0.00 in
Snow Depth Not available.
5:47 AM 8:07 PM
Waning Gibbous, 70% visible
METAR KEVV 250254Z 00000KT 10SM CLR 29/24 A2997 RMK AO2 SLP143 T02890239 53006
Pressure 29.96 in
Visibility 10.0 miles
Clouds Clear
Heat Index 87 °F
Dew Point 76 °F
Humidity 87%
Rainfall 0.00 in
Snow Depth Not available.
5:47 AM 8:07 PM
Waning Gibbous, 70% visible
METAR KEVV 250254Z 00000KT 10SM CLR 29/24 A2997 RMK AO2 SLP143 T02890239 53006

10-Day Weather Forecast

Almanac

Astronomy

Jul. 24, 2016 Rise Set
Actual Time
Civil Twilight
Nautical Twilight
Astronomical Twilight
Moon
Length of Visible Light
Length of Day
Tomorrow will be .
, % of the Moon is Illuminated

Today's Extremes

State Highs State Lows

Community

WunderPhotos

Upload Photos

1,927,256 photos uploaded!

WunderBlog® & News

Nearby

Air Quality

  Air Quality AQ Index Pollutant
Not available.

Snow Depth

Station Depth Elevation

Earthquake Activity

City Distance Mag. Time & Date
Minimum magnitude displayed is 2.5.

Coastal Water Temperatures

Place Temperature

Stations

Nearby Weather Stations

Station Location Temp. Windchill Dew Point Humidity Wind Precip. Elev Updated Type
                   

Watches & Warnings

There are currently no watches in effect.